This is the latest recevied weather packets stored in our database for station/object TG9SRP-22. If no packets are shown the sender has not sent any weather packets the latest 10 day(s).
| Time | Temp. | Humidity | Pressure | Rain* | Wind** | Luminosity | Snow |
|---|---|---|---|---|---|---|---|
| 1777804631 | 15° C | 87% | 1016 hPa | 0 mm | - | - | - |
| 1777804031 | 16.11° C | 85% | 1014 hPa | 0 mm | - | - | - |
| 1777803430 | 17.22° C | 83% | 1015 hPa | 0 mm | - | - | - |
| 1777802830 | 17.78° C | 83% | 1015 hPa | 0 mm | - | - | - |
| 1777802229 | 12.78° C | 94% | 1015 hPa | 0 mm | - | - | - |
| 1777801628 | 13.89° C | 93% | 1015 hPa | 0 mm | - | - | - |
| 1777801028 | 15° C | 92% | 1015 hPa | 0 mm | - | - | - |
| 1777800427 | 16.11° C | 91% | 1015 hPa | 0 mm | - | - | - |
| 1777799827 | 17.22° C | 89% | 1015 hPa | 0 mm | - | - | - |
| 1777799226 | 18.33° C | 88% | 1015 hPa | 0 mm | - | - | - |
| 1777798625 | 13.89° C | 93% | 1015 hPa | 0 mm | - | - | - |
| 1777798025 | 15° C | 92% | 1015 hPa | 0 mm | - | - | - |
| 1777797425 | 15° C | 92% | 1015 hPa | 0 mm | - | - | - |
| 1777796824 | 16.11° C | 91% | 1015 hPa | 0 mm | - | - | - |
| 1777796223 | 17.22° C | 90% | 1015 hPa | 0 mm | - | - | - |
| 1777795623 | 13.89° C | 92% | 1015 hPa | 0 mm | - | - | - |
| 1777795022 | 13.89° C | 92% | 1015 hPa | 0 mm | - | - | - |
| 1777794422 | 15° C | 91% | 1015 hPa | 0 mm | - | - | - |
| 1777793821 | 16.11° C | 90% | 1015 hPa | 0 mm | - | - | - |
| 1777793220 | 17.22° C | 89% | 1016 hPa | 0 mm | - | - | - |
| 1777792615 | 18.33° C | 87% | 1016 hPa | 0 mm | - | - | - |
| 1777792014 | 15° C | 87% | 1016 hPa | 0 mm | - | - | - |
| 1777791413 | 16.11° C | 85% | 1016 hPa | 0 mm | - | - | - |
| 1777790813 | 17.22° C | 84% | 1016 hPa | 0 mm | - | - | - |
| 1777790212 | 18.33° C | 83% | 1016 hPa | 0 mm | - | - | - |
* Rain latest hour (hover to see other rain measurements)
** Current wind speed in m/s (hover to see current wind gust speed)